createdAt,value
2019-02-18T00:00:38.699Z,0.13
2019-02-18T00:03:07.959Z,0.11
2019-02-18T00:05:36.247Z,0.09
2019-02-18T00:08:04.503Z,0.08
2019-02-18T00:10:32.796Z,0.08
2019-02-18T00:13:01.094Z,0.07
2019-02-18T00:15:29.449Z,0.07
2019-02-18T00:17:57.716Z,0.06
2019-02-18T00:20:26.007Z,0.06
2019-02-18T00:22:54.267Z,0.05
2019-02-18T00:25:22.542Z,0.08
2019-02-18T00:27:50.834Z,0.11
2019-02-18T00:30:19.163Z,0.08
2019-02-18T00:32:47.417Z,0.07
2019-02-18T00:35:15.684Z,0.08
2019-02-18T00:37:43.969Z,0.09
2019-02-18T00:40:12.225Z,0.05
2019-02-18T00:42:40.513Z,0.00
2019-02-18T00:45:13.349Z,0.00
2019-02-18T00:47:41.646Z,0.02
2019-02-18T00:50:10.538Z,-0.01
2019-02-18T00:52:38.829Z,0.01
2019-02-18T00:55:08.655Z,0.07
2019-02-18T00:57:36.925Z,0.07
2019-02-18T01:00:08.955Z,0.07
2019-02-18T01:02:37.306Z,0.06
2019-02-18T01:05:06.500Z,0.01
2019-02-18T01:07:35.342Z,0.02
2019-02-18T01:10:04.339Z,0.06
2019-02-18T01:12:32.604Z,0.05
2019-02-18T01:15:00.873Z,0.04
2019-02-18T01:17:29.171Z,0.04
2019-02-18T01:19:57.435Z,0.05
2019-02-18T01:22:25.716Z,0.05
2019-02-18T01:24:53.985Z,0.07
2019-02-18T01:27:22.276Z,0.07
2019-02-18T01:29:50.569Z,0.06
2019-02-18T01:32:18.845Z,0.07
2019-02-18T01:34:47.163Z,0.08
2019-02-18T01:37:15.418Z,0.11
2019-02-18T01:39:43.677Z,0.12
2019-02-18T01:42:11.955Z,0.13
2019-02-18T01:44:40.256Z,0.08
2019-02-18T01:47:08.525Z,0.03
2019-02-18T01:49:36.795Z,0.06
2019-02-18T01:52:05.082Z,0.11
2019-02-18T01:54:33.345Z,0.06
2019-02-18T01:57:01.630Z,0.04
2019-02-18T01:59:29.904Z,-0.05
2019-02-18T02:01:58.197Z,-0.07
2019-02-18T02:04:26.496Z,-0.12
2019-02-18T02:06:54.870Z,-0.16
2019-02-18T02:09:23.130Z,-0.21
2019-02-18T02:11:51.420Z,-0.25
2019-02-18T02:14:19.682Z,-0.26
2019-02-18T02:16:47.979Z,-0.31
2019-02-18T02:19:16.278Z,-0.32
2019-02-18T02:21:44.555Z,-0.40
2019-02-18T02:24:12.839Z,-0.44
2019-02-18T02:26:41.137Z,-0.47
2019-02-18T02:29:09.402Z,-0.47
2019-02-18T02:31:37.699Z,-0.44
2019-02-18T02:34:06.010Z,-0.44
2019-02-18T02:36:34.273Z,-0.43
2019-02-18T02:39:02.583Z,-0.40
2019-02-18T02:41:30.844Z,-0.38
2019-02-18T02:43:59.105Z,-0.39
2019-02-18T02:46:27.418Z,-0.39
2019-02-18T02:48:55.680Z,-0.35
2019-02-18T02:51:23.938Z,-0.33
2019-02-18T02:53:52.222Z,-0.29
2019-02-18T02:56:20.506Z,-0.25
2019-02-18T02:58:48.790Z,-0.24
2019-02-18T03:01:17.071Z,-0.23
2019-02-18T03:03:45.338Z,-0.25
2019-02-18T03:06:13.626Z,-0.26
2019-02-18T03:08:41.902Z,-0.28
2019-02-18T03:11:10.235Z,-0.23
2019-02-18T03:13:38.500Z,-0.25
2019-02-18T03:16:07.134Z,-0.29
2019-02-18T03:18:35.441Z,-0.29
2019-02-18T03:21:03.727Z,-0.38
2019-02-18T03:23:32.026Z,-0.45
2019-02-18T03:26:00.296Z,-0.51
2019-02-18T03:31:30.226Z,-0.54
2019-02-18T03:34:04.443Z,-0.55
2019-02-18T03:36:32.715Z,-0.54
2019-02-18T03:39:00.984Z,-0.52
2019-02-18T03:41:29.392Z,-0.49
2019-02-18T03:43:57.656Z,-0.44
2019-02-18T03:46:25.916Z,-0.47
2019-02-18T03:48:54.216Z,-0.44
2019-02-18T03:51:22.468Z,-0.47
2019-02-18T03:53:50.771Z,-0.59
2019-02-18T03:56:19.052Z,-0.65
2019-02-18T03:58:47.315Z,-0.63
2019-02-18T04:01:15.623Z,-0.70
2019-02-18T04:03:43.885Z,-0.71
2019-02-18T04:06:12.189Z,-0.76
2019-02-18T04:08:43.215Z,-0.84
2019-02-18T04:11:10.538Z,-0.89
2019-02-18T04:13:38.795Z,-0.89
2019-02-18T04:16:07.107Z,-0.86
2019-02-18T04:18:35.404Z,-0.86
2019-02-18T04:21:03.738Z,-0.76
2019-02-18T04:23:32.013Z,-0.70
2019-02-18T04:26:00.285Z,-0.73
2019-02-18T04:28:28.584Z,-0.70
2019-02-18T04:30:56.893Z,-0.67
2019-02-18T04:33:25.131Z,-0.64
2019-02-18T04:35:53.437Z,-0.62
2019-02-18T04:40:59.022Z,-0.51
2019-02-18T04:43:27.322Z,-0.53
2019-02-18T04:45:55.582Z,-0.51
2019-02-18T04:48:23.952Z,-0.50
2019-02-18T04:50:52.180Z,-0.49
2019-02-18T04:53:20.441Z,-0.49
2019-02-18T04:55:48.726Z,-0.50
2019-02-18T04:58:16.999Z,-0.55
2019-02-18T05:00:45.277Z,-0.55
2019-02-18T05:03:13.563Z,-0.58
2019-02-18T05:05:41.825Z,-0.58
2019-02-18T05:08:10.093Z,-0.59
2019-02-18T05:10:38.374Z,-0.59
2019-02-18T05:13:06.678Z,-0.57
2019-02-18T05:15:34.963Z,-0.57
2019-02-18T05:18:03.247Z,-0.58
2019-02-18T05:20:31.532Z,-0.53
2019-02-18T05:22:59.794Z,-0.58
2019-02-18T05:25:28.069Z,-0.59
2019-02-18T05:27:56.335Z,-0.58
2019-02-18T05:30:24.642Z,-0.57
2019-02-18T05:32:52.903Z,-0.58
2019-02-18T05:35:21.201Z,-0.58
2019-02-18T05:37:49.459Z,-0.59
2019-02-18T05:40:17.781Z,-0.57
2019-02-18T05:42:46.111Z,-0.56
2019-02-18T05:45:14.380Z,-0.57
2019-02-18T05:47:42.671Z,-0.62
2019-02-18T05:50:10.959Z,-0.66
2019-02-18T05:52:39.219Z,-0.66
2019-02-18T05:55:07.780Z,-0.64
2019-02-18T05:57:36.046Z,-0.67
2019-02-18T06:00:10.078Z,-0.71
2019-02-18T06:02:38.371Z,-0.70
2019-02-18T06:05:07.511Z,-0.72
2019-02-18T06:07:35.811Z,-0.69
2019-02-18T06:10:06.527Z,-0.70
2019-02-18T06:12:34.983Z,-0.73
2019-02-18T06:15:03.314Z,-0.69
2019-02-18T06:17:31.686Z,-0.69
2019-02-18T06:19:59.951Z,-0.78
2019-02-18T06:22:28.250Z,-0.80
2019-02-18T06:24:56.542Z,-0.83
2019-02-18T06:27:24.809Z,-0.81
2019-02-18T06:29:53.086Z,-0.83
2019-02-18T06:32:21.375Z,-0.82
2019-02-18T06:34:49.637Z,-0.85
2019-02-18T06:37:17.918Z,-0.78
2019-02-18T06:39:46.252Z,-0.69
2019-02-18T06:42:14.515Z,-0.74
2019-02-18T06:44:44.417Z,-0.66
2019-02-18T06:47:12.779Z,-0.60
2019-02-18T06:49:41.051Z,-0.54
2019-02-18T06:52:09.353Z,-0.51
2019-02-18T06:54:37.609Z,-0.45
2019-02-18T06:57:13.291Z,-0.42
2019-02-18T06:59:43.232Z,-0.36
2019-02-18T07:02:13.134Z,-0.33
2019-02-18T07:04:43.030Z,-0.27
2019-02-18T07:07:15.700Z,-0.20
2019-02-18T07:09:51.924Z,-0.11
2019-02-18T07:12:27.842Z,-0.03
2019-02-18T07:14:56.101Z,0.04
2019-02-18T07:17:24.381Z,0.09
2019-02-18T07:19:52.686Z,0.16
2019-02-18T07:22:20.948Z,0.25
2019-02-18T07:24:49.213Z,0.32
2019-02-18T07:27:17.535Z,0.37
2019-02-18T07:29:45.789Z,0.43
2019-02-18T07:32:14.053Z,0.47
2019-02-18T07:34:42.339Z,0.52
2019-02-18T07:37:10.591Z,0.53
2019-02-18T07:39:38.883Z,0.55
2019-02-18T07:42:07.155Z,0.61
2019-02-18T07:44:35.414Z,0.67
2019-02-18T07:47:03.703Z,0.75
2019-02-18T07:49:31.974Z,0.78
2019-02-18T07:52:00.241Z,0.78
2019-02-18T07:54:28.517Z,0.92
2019-02-18T07:56:56.802Z,1.07
2019-02-18T07:59:25.137Z,1.08
2019-02-18T08:01:53.393Z,1.15
2019-02-18T08:04:21.644Z,1.15
2019-02-18T08:06:49.975Z,1.23
2019-02-18T08:09:18.241Z,1.35
2019-02-18T08:11:46.506Z,1.52
2019-02-18T08:14:14.809Z,1.63
2019-02-18T08:16:43.068Z,1.72
2019-02-18T08:19:11.352Z,1.84
2019-02-18T08:21:39.650Z,1.97
2019-02-18T08:24:07.909Z,2.08
2019-02-18T08:26:36.165Z,2.14
2019-02-18T08:29:04.457Z,2.18
2019-02-18T08:31:32.718Z,2.20
2019-02-18T08:34:01.013Z,2.29
2019-02-18T08:36:29.301Z,2.36
2019-02-18T08:38:57.572Z,2.38
2019-02-18T08:41:25.840Z,2.48
2019-02-18T08:43:54.166Z,2.57
2019-02-18T08:46:22.424Z,2.61
2019-02-18T08:48:50.676Z,2.74
2019-02-18T08:51:18.946Z,2.88
2019-02-18T08:53:47.986Z,3.00
2019-02-18T08:56:16.370Z,3.10
2019-02-18T08:58:44.663Z,3.18
2019-02-18T09:01:12.925Z,3.27
2019-02-18T09:03:41.200Z,3.29
2019-02-18T09:06:09.481Z,3.30
2019-02-18T09:08:37.774Z,3.29
2019-02-18T09:11:06.071Z,3.33
2019-02-18T09:13:34.335Z,3.38
2019-02-18T09:16:02.640Z,3.35
2019-02-18T09:18:30.899Z,3.35
2019-02-18T09:20:59.226Z,3.37
2019-02-18T09:23:32.101Z,3.47
2019-02-18T09:26:00.438Z,3.62
2019-02-18T09:28:28.740Z,3.72
2019-02-18T09:30:57.350Z,3.66
2019-02-18T09:33:25.630Z,3.70
2019-02-18T09:40:08.098Z,4.06
2019-02-18T09:42:36.374Z,3.95
2019-02-18T09:45:06.952Z,3.87
2019-02-18T09:47:35.207Z,3.97
2019-02-18T09:50:05.033Z,4.03
2019-02-18T09:52:33.287Z,4.17
2019-02-18T09:55:01.550Z,4.17
2019-02-18T09:57:29.848Z,4.28
2019-02-18T09:59:58.139Z,4.39
2019-02-18T10:02:26.388Z,4.53
2019-02-18T10:04:54.659Z,4.59
2019-02-18T10:07:22.951Z,4.68
2019-02-18T10:09:52.349Z,4.78
2019-02-18T10:12:20.647Z,4.87
2019-02-18T10:14:48.902Z,4.88
2019-02-18T10:17:17.197Z,4.95
2019-02-18T10:19:45.460Z,5.05
2019-02-18T10:22:13.790Z,5.09
2019-02-18T10:24:50.511Z,5.22
2019-02-18T10:27:12.078Z,5.41
2019-02-18T10:29:40.344Z,5.44
2019-02-18T10:32:08.647Z,5.51
2019-02-18T10:34:36.905Z,5.56
2019-02-18T10:37:05.201Z,5.74
2019-02-18T10:39:33.494Z,5.96
2019-02-18T10:42:01.745Z,6.05
2019-02-18T10:44:30.035Z,6.04
2019-02-18T10:46:58.322Z,6.15
2019-02-18T10:49:26.585Z,6.29
2019-02-18T10:51:54.874Z,6.45
2019-02-18T10:54:23.131Z,6.59
2019-02-18T10:56:51.418Z,6.74
2019-02-18T10:59:19.667Z,6.89
2019-02-18T11:01:47.957Z,6.98
2019-02-18T11:04:16.223Z,7.22
2019-02-18T11:06:44.895Z,7.45
2019-02-18T11:09:13.238Z,7.88
2019-02-18T11:11:41.534Z,8.16
2019-02-18T11:14:09.786Z,8.47
2019-02-18T11:16:38.360Z,8.72
2019-02-18T11:19:06.630Z,9.03
2019-02-18T11:21:34.923Z,9.31
2019-02-18T11:24:03.189Z,9.79
2019-02-18T11:26:31.481Z,10.73
2019-02-18T11:28:59.748Z,11.78
2019-02-18T11:31:28.321Z,12.75
2019-02-18T11:33:56.618Z,13.65
2019-02-18T11:36:24.890Z,14.68
2019-02-18T11:38:53.154Z,15.71
2019-02-18T11:41:27.472Z,16.85
2019-02-18T11:43:51.446Z,17.73
2019-02-18T11:46:20.037Z,18.57
2019-02-18T11:48:48.306Z,19.28
2019-02-18T11:51:16.580Z,19.42
2019-02-18T11:53:44.873Z,20.15
2019-02-18T11:56:13.206Z,20.74
2019-02-18T11:58:41.499Z,21.47
2019-02-18T12:01:09.844Z,21.50
2019-02-18T12:03:38.140Z,22.30
2019-02-18T12:06:06.443Z,22.81
2019-02-18T12:08:34.721Z,23.30
2019-02-18T12:11:02.992Z,23.67
2019-02-18T12:13:31.288Z,24.14
2019-02-18T12:15:59.564Z,24.66
2019-02-18T12:18:28.240Z,25.06
2019-02-18T12:20:56.547Z,24.90
2019-02-18T12:23:24.812Z,25.07
2019-02-18T12:25:53.125Z,25.46
2019-02-18T12:28:21.407Z,25.83
2019-02-18T12:30:49.746Z,25.99
2019-02-18T12:33:18.034Z,26.11
2019-02-18T12:35:46.458Z,25.90
2019-02-18T12:38:17.170Z,25.81
2019-02-18T12:40:44.747Z,25.66
2019-02-18T12:43:13.013Z,25.26
2019-02-18T12:45:41.304Z,25.36
2019-02-18T12:48:09.583Z,25.70
2019-02-18T12:50:38.149Z,25.73
2019-02-18T12:53:06.550Z,25.50
2019-02-18T12:55:35.036Z,25.24
2019-02-18T12:58:03.586Z,24.54
2019-02-18T13:00:32.017Z,24.22
2019-02-18T13:03:00.443Z,23.93
2019-02-18T13:05:28.722Z,23.48
2019-02-18T13:07:56.995Z,23.47
2019-02-18T13:10:34.675Z,23.43
2019-02-18T13:12:55.480Z,22.94
2019-02-18T13:15:23.737Z,23.14
2019-02-18T13:17:52.032Z,22.73
2019-02-18T13:20:20.325Z,22.65
2019-02-18T13:22:48.591Z,22.46
2019-02-18T13:25:16.889Z,22.27
2019-02-18T13:27:45.435Z,22.26
2019-02-18T13:30:16.115Z,22.53
2019-02-18T13:32:44.370Z,22.72
2019-02-18T13:35:12.633Z,22.83
2019-02-18T13:37:40.959Z,22.67
2019-02-18T13:40:09.217Z,22.30
2019-02-18T13:42:37.587Z,21.89
2019-02-18T13:45:07.894Z,21.39
2019-02-18T13:47:36.196Z,20.97
2019-02-18T13:50:09.894Z,20.60
2019-02-18T13:52:38.196Z,20.37
2019-02-18T13:55:08.709Z,20.33
2019-02-18T13:57:37.000Z,20.12
2019-02-18T14:00:08.518Z,20.08
2019-02-18T14:02:36.824Z,19.64
2019-02-18T14:05:06.722Z,19.46
2019-02-18T14:07:36.287Z,19.33
2019-02-18T14:10:06.024Z,19.24
2019-02-18T14:12:34.660Z,19.14
2019-02-18T14:15:02.957Z,19.02
2019-02-18T14:17:31.256Z,18.78
2019-02-18T14:19:59.553Z,18.40
2019-02-18T14:22:27.853Z,17.97
2019-02-18T14:24:56.120Z,17.80
2019-02-18T14:27:24.418Z,17.69
2019-02-18T14:29:52.853Z,17.57
2019-02-18T14:32:21.134Z,17.43
2019-02-18T14:34:49.406Z,17.15
2019-02-18T14:37:17.685Z,16.76
2019-02-18T14:39:46.017Z,16.41
2019-02-18T14:42:14.319Z,16.20
2019-02-18T14:44:43.089Z,16.10
2019-02-18T14:47:11.464Z,15.70
2019-02-18T14:49:39.798Z,15.41
2019-02-18T14:52:08.061Z,15.04
2019-02-18T14:54:36.325Z,14.31
2019-02-18T14:57:04.629Z,13.43
2019-02-18T14:59:32.911Z,12.69
2019-02-18T15:02:01.500Z,12.01
2019-02-18T15:04:29.774Z,11.48
2019-02-18T15:06:58.042Z,10.81
2019-02-18T15:09:26.352Z,10.21
2019-02-18T15:11:54.662Z,9.68
2019-02-18T15:14:22.931Z,9.40
2019-02-18T15:16:51.573Z,8.86
2019-02-18T15:19:19.869Z,8.49
2019-02-18T15:21:48.161Z,8.21
2019-02-18T15:24:16.418Z,7.86
2019-02-18T15:26:44.785Z,7.62
2019-02-18T15:29:13.047Z,7.10
2019-02-18T15:31:41.349Z,6.83
2019-02-18T15:34:09.779Z,6.63
2019-02-18T15:36:38.044Z,6.37
2019-02-18T15:39:06.333Z,6.18
2019-02-18T15:41:34.578Z,6.05
2019-02-18T15:44:02.871Z,5.94
2019-02-18T15:46:31.136Z,5.73
2019-02-18T15:48:59.796Z,5.51
2019-02-18T15:51:28.060Z,5.41
2019-02-18T15:53:56.338Z,5.20
2019-02-18T15:56:24.593Z,4.98
2019-02-18T15:58:52.888Z,4.77
2019-02-18T16:01:21.209Z,4.67
2019-02-18T16:03:49.504Z,4.56
2019-02-18T16:06:17.981Z,4.41
2019-02-18T16:08:46.238Z,4.23
2019-02-18T16:11:14.534Z,4.21
2019-02-18T16:13:42.809Z,4.16
2019-02-18T16:16:11.069Z,4.03
2019-02-18T16:18:39.366Z,3.94
2019-02-18T16:21:07.652Z,3.86
2019-02-18T16:23:35.946Z,3.79
2019-02-18T16:26:04.212Z,3.89
2019-02-18T16:28:32.501Z,3.84
2019-02-18T16:31:00.863Z,3.74
2019-02-18T16:33:29.135Z,3.58
2019-02-18T16:35:57.465Z,3.51
2019-02-18T16:38:25.739Z,3.45
2019-02-18T16:40:54.036Z,3.36
2019-02-18T16:43:22.648Z,3.28
2019-02-18T16:45:50.943Z,3.18
2019-02-18T16:48:19.482Z,3.12
2019-02-18T16:50:47.784Z,3.03
2019-02-18T16:53:16.458Z,2.98
2019-02-18T16:55:44.738Z,2.87
2019-02-18T16:58:12.998Z,2.83
2019-02-18T17:00:41.473Z,2.81
2019-02-18T17:03:09.721Z,2.82
2019-02-18T17:05:38.013Z,2.68
2019-02-18T17:08:06.270Z,2.59
2019-02-18T17:10:34.559Z,2.54
2019-02-18T17:13:08.125Z,2.49
2019-02-18T17:15:32.853Z,2.45
2019-02-18T17:18:01.174Z,2.39
2019-02-18T17:20:29.436Z,2.34
2019-02-18T17:22:57.695Z,2.28
2019-02-18T17:25:27.045Z,2.25
2019-02-18T17:27:55.349Z,2.11
2019-02-18T17:30:23.608Z,2.09
2019-02-18T17:32:51.907Z,2.06
2019-02-18T17:35:20.327Z,2.05
2019-02-18T17:37:48.587Z,1.96
2019-02-18T17:40:16.853Z,1.92
2019-02-18T17:42:45.470Z,1.87
2019-02-18T17:45:17.805Z,1.85
2019-02-18T17:47:46.066Z,1.84
2019-02-18T17:50:16.398Z,1.78
2019-02-18T17:52:44.854Z,1.70
2019-02-18T17:55:15.080Z,1.69
2019-02-18T17:57:43.524Z,1.66
2019-02-18T18:00:17.775Z,1.63
2019-02-18T18:02:46.050Z,1.58
2019-02-18T18:05:14.396Z,1.55
2019-02-18T18:07:42.711Z,1.52
2019-02-18T18:10:12.410Z,1.51
2019-02-18T18:12:40.710Z,1.42
2019-02-18T18:15:13.950Z,1.41
2019-02-18T18:17:42.198Z,1.40
2019-02-18T18:20:14.196Z,1.28
2019-02-18T18:22:42.458Z,1.23
2019-02-18T18:25:12.409Z,1.17
2019-02-18T18:27:40.686Z,1.17
2019-02-18T18:30:15.166Z,1.19
2019-02-18T18:32:45.242Z,1.18
2019-02-18T18:35:14.018Z,1.13
2019-02-18T18:37:42.581Z,1.11
2019-02-18T18:40:14.576Z,1.07
2019-02-18T18:42:42.833Z,1.02
2019-02-18T18:45:15.533Z,0.96
2019-02-18T18:47:44.024Z,0.91
2019-02-18T18:50:14.747Z,0.90
2019-02-18T18:52:43.719Z,0.90
2019-02-18T18:55:12.138Z,0.89
2019-02-18T18:57:40.911Z,0.92
2019-02-18T19:00:15.513Z,0.86
2019-02-18T19:02:43.994Z,0.84
2019-02-18T19:05:12.642Z,0.82
2019-02-18T19:07:41.265Z,0.74
2019-02-18T19:10:10.102Z,0.71
2019-02-18T19:12:38.516Z,0.72
2019-02-18T19:15:12.514Z,0.68
2019-02-18T19:17:40.762Z,0.59
2019-02-18T19:20:11.604Z,0.55
2019-02-18T19:22:40.057Z,0.54
2019-02-18T19:25:09.954Z,0.57
2019-02-18T19:27:38.241Z,0.57
2019-02-18T19:30:09.896Z,0.54
2019-02-18T19:32:38.178Z,0.50
2019-02-18T19:35:08.145Z,0.51
2019-02-18T19:37:36.420Z,0.45
2019-02-18T19:40:41.146Z,0.37
2019-02-18T19:43:09.412Z,0.35
2019-02-18T19:45:37.709Z,0.37
2019-02-18T19:48:05.976Z,0.37
2019-02-18T19:50:34.232Z,0.37
2019-02-18T19:53:02.557Z,0.34
2019-02-18T19:55:30.805Z,0.31
2019-02-18T19:57:59.333Z,0.29
2019-02-18T20:00:27.634Z,0.23
2019-02-18T20:02:55.897Z,0.17
2019-02-18T20:05:24.203Z,0.13
2019-02-18T20:07:52.480Z,0.09
2019-02-18T20:10:20.737Z,0.08
2019-02-18T20:12:49.034Z,0.06
2019-02-18T20:15:17.346Z,0.01
2019-02-18T20:17:45.618Z,-0.03
2019-02-18T20:20:16.292Z,-0.08
2019-02-18T20:22:44.582Z,-0.11
2019-02-18T20:25:12.907Z,-0.17
2019-02-18T20:27:41.197Z,-0.22
2019-02-18T20:30:12.558Z,-0.27
2019-02-18T20:32:40.840Z,-0.31
2019-02-18T20:35:10.382Z,-0.39
2019-02-18T20:37:39.012Z,-0.45
2019-02-18T20:40:08.728Z,-0.51
2019-02-18T20:42:37.014Z,-0.54
2019-02-18T20:45:08.596Z,-0.57
2019-02-18T20:47:37.229Z,-0.60
2019-02-18T20:50:08.139Z,-0.65
2019-02-18T20:52:36.861Z,-0.67
2019-02-18T20:55:07.554Z,-0.68
2019-02-18T20:57:36.499Z,-0.67
2019-02-18T21:00:08.260Z,-0.70
2019-02-18T21:02:36.813Z,-0.64
2019-02-18T21:05:05.832Z,-0.67
2019-02-18T21:07:34.310Z,-0.69
2019-02-18T21:10:02.627Z,-0.65
2019-02-18T21:12:31.701Z,-0.67
2019-02-18T21:15:00.292Z,-0.65
2019-02-18T21:17:28.578Z,-0.69
2019-02-18T21:19:56.891Z,-0.68
2019-02-18T21:22:25.162Z,-0.68
2019-02-18T21:24:53.460Z,-0.64
2019-02-18T21:27:22.115Z,-0.59
2019-02-18T21:29:50.382Z,-0.57
2019-02-18T21:32:18.683Z,-0.55
2019-02-18T21:34:46.954Z,-0.56
2019-02-18T21:37:15.259Z,-0.55
2019-02-18T21:39:43.535Z,-0.56
2019-02-18T21:42:11.884Z,-0.56
2019-02-18T21:44:40.235Z,-0.52
2019-02-18T21:47:08.561Z,-0.47
2019-02-18T21:49:36.805Z,-0.45
2019-02-18T21:52:05.107Z,-0.40
2019-02-18T21:54:33.405Z,-0.38
2019-02-18T21:57:01.668Z,-0.34
2019-02-18T21:59:30.354Z,-0.30
2019-02-18T22:01:58.623Z,-0.27
2019-02-18T22:04:26.882Z,-0.21
2019-02-18T22:06:55.153Z,-0.20
2019-02-18T22:09:23.447Z,-0.18
2019-02-18T22:11:51.749Z,-0.18
2019-02-18T22:14:20.048Z,-0.17
2019-02-18T22:16:48.587Z,-0.13
2019-02-18T22:19:16.864Z,-0.11
2019-02-18T22:21:45.138Z,-0.11
2019-02-18T22:24:13.412Z,-0.12
2019-02-18T22:26:41.707Z,-0.11
2019-02-18T22:29:09.991Z,-0.10
2019-02-18T22:31:38.257Z,-0.12
2019-02-18T22:34:07.013Z,-0.09
2019-02-18T22:36:35.266Z,-0.06
2019-02-18T22:39:04.768Z,-0.06
2019-02-18T22:41:33.062Z,0.17
2019-02-18T22:44:01.326Z,0.19
2019-02-18T22:46:29.639Z,0.16
2019-02-18T22:48:57.922Z,0.11
2019-02-18T22:51:26.511Z,0.09
2019-02-18T22:53:54.775Z,0.09
2019-02-18T22:56:23.102Z,0.11
2019-02-18T22:58:51.393Z,0.12
2019-02-18T23:01:20.965Z,0.12
2019-02-18T23:03:49.331Z,0.14
2019-02-18T23:06:17.642Z,0.13
2019-02-18T23:08:45.900Z,0.11
2019-02-18T23:11:14.201Z,0.12
2019-02-18T23:13:42.474Z,0.13
2019-02-18T23:16:10.757Z,0.12
2019-02-18T23:18:39.066Z,0.13
2019-02-18T23:21:07.331Z,0.13
2019-02-18T23:23:35.624Z,0.10
2019-02-18T23:26:03.912Z,0.10
2019-02-18T23:28:32.169Z,0.09
2019-02-18T23:31:00.469Z,0.09
2019-02-18T23:33:28.766Z,0.08
2019-02-18T23:35:57.018Z,0.11
2019-02-18T23:38:25.309Z,0.12
2019-02-18T23:40:55.347Z,0.12
2019-02-18T23:43:23.747Z,0.12
2019-02-18T23:45:52.035Z,0.13
2019-02-18T23:48:20.288Z,0.12
2019-02-18T23:50:48.593Z,0.14
2019-02-18T23:53:16.840Z,0.14
2019-02-18T23:55:45.114Z,0.12
2019-02-18T23:58:13.390Z,0.10
